Aeroporto :
LOGIN :

Iscrizione | Disclaimer

   EN    FR    IT 

 










Sommario :    VFR   VFR Marginale   IFR   IFR Intensivo   IFR Molto Intensivo
Visibilità : 
Base nubi : 
>= 8 km
>= 3000ft
5 / 8 km
1000 / 3000 ft
1500m / 5 km
500 / 1000 ft
800 / 1500m
200 / 500 ft
< 800m
< 200 ft
Simboli :   Temporali  Nebbia  Neve Forte  Precipitazioni Forti  Vento > 20 kt
SIGMETs :   Varie  Temporali  Ghiacco  Turbolenza  Onda orograficha  Ceneri Vulcaniche







- Altitudine del aeroporto : 412 ft
- Codice IATA : ORE
- Carte del aeroporto


LFOJ - Orleans

ULTIMO METAR :
  • 211100Z AUTO 06011KT 020V090 CAVOK 13/04 Q1032 NOSIG

METARs OBSOLETI :
  • 211030Z AUTO 06010KT 030V090 CAVOK 13/04 Q1032 NOSIG
  • 211000Z AUTO 05010KT CAVOK 12/05 Q1033 NOSIG
  • 210930Z AUTO 05009KT CAVOK 11/05 Q1033 NOSIG
  • 210900Z AUTO 05010KT CAVOK 10/06 Q1033 NOSIG
  • 210830Z AUTO 05008KT 9000 NSC 09/06 Q1033 NOSIG

TAF TAF LFOJ
Valido dal 21 a 09 ore il 22 a 09 ore UTC


210800Z 2109/2209 04010KT 8000 NSC
BECMG 2122/2124 3000 BR
PROB40
TEMPO 2204/2208 0800 FG VV///
Nessun NOTAM noto per questo aeroporto.



MetMap, La meteo Aeronautica in un colpo d'occhio ! - Copyright ORBIFLY Dicembre 2007 - Disclaimer

ORBIFLY MET'MAP TEAM :

Programmazione e sviluppo : Alexandra Zaïnal
Concezione e sviluppo : Baudouin d'Aumeries
Co-Programmazione e sviluppo : Marc-Olivier Méhu
Supporto tecnico e logistico : Manuel Goepfert
Aiuto per la traduzione : Arnaldo La Scala

Contatto : metmap@orbifly.com




FONTI E CREDITI :

   NOAA